Nearby METAR Reports

 

KBFI - Boeing Field Seattle, WA, USA
Distance from station: SE 4mi, 7km
Updated: Wed, 14-Nov-2018 7:53am PST
Light rain, Overcast
Light rain, Overcast
 Wind from S
Wind: S 7 mph , 11 km/h
Temperature: 48°F , 9°C
Wind Chill: 45°F , 7°C
Dew Point: 41°F , 5°C
Humidity: 76%
Barometer: 30.26 inHg , 1024.7 hPa
Summary: Light rain
Clouds: Overcast
Visibility: 4 miles , 6 km
Cloud details: Partly cloudy 1900 ft
Mostly cloudy 3200 ft
Overcast 4200 ft
2018/11/14 15:53 KBFI 141553Z 18006KT 4SM -RA SCT019 BKN032 OVC042 09/05 A3026 RMK AO2 RAB40 SLP245 P0001 T00940050
KSEA - Seattle/Metro, WA, USA
Distance from station: NE 5mi, 8km
Updated: Wed, 14-Nov-2018 7:53am PST
Light rain, Overcast
Light rain, Overcast
 Wind from SW
Wind: SW 7 mph , 11 km/h
Temperature: 48°F , 9°C
Wind Chill: 45°F , 7°C
Dew Point: 41°F , 5°C
Humidity: 76%
Barometer: 30.26 inHg , 1024.7 hPa
Summary: Light rain
Clouds: Overcast
Visibility: 5 miles , 8 km
Cloud details: Mostly cloudy 2800 ft
Overcast 3700 ft
2018/11/14 15:53 KSEA 141553Z 23006KT 5SM -RA BKN028 OVC037 09/05 A3026 RMK AO2 RAB44 SLP253 P0001 T00940050
 
KTIW - Tacoma, WA, USA
Distance from station: S 30mi, 45km
Updated: Wed, 14-Nov-2018 7:53am PST
Light rain, Overcast
Light rain, Overcast
 Wind from S
Wind: S 14 mph , 22 km/h, Gust: 22 mph , 35 km/h
Temperature: 52°F , 11°C
Dew Point: 41°F , 5°C
Humidity: 67%
Barometer: 30.25 inHg , 1024.4 hPa
Summary: Light rain
Clouds: Overcast
Visibility: 9 miles , 14 km
Cloud details: Overcast 2600 ft
2018/11/14 15:53 KTIW 141553Z 19012G19KT 9SM -RA OVC026 11/05 A3025 RMK AO2 RAB38 SLP245 P0000 T01060050
KCLM - Port Angeles, WA, USA
Distance from station: NW 70mi, 100km
Updated: Wed, 14-Nov-2018 7:53am PST
Light rain, Mist, Overcast
Light rain, Mist, Overcast
 Wind from WNW
Wind: WNW 5 mph , 7 km/h
Temperature: 46°F , 8°C
Wind Chill: 44°F , 7°C
Dew Point: 46°F , 8°C
Humidity: 100%
Barometer: 30.13 inHg , 1020.3 hPa
Summary: Light rain, Mist
Clouds: Overcast
Visibility: 3 miles , 5 km
Cloud details: Few Clouds 2900 ft
Mostly cloudy 6500 ft
Overcast 8000 ft
2018/11/14 15:53 KCLM 141553Z AUTO 29004KT 3SM -RA BR FEW029 BKN065 OVC080 08/08 A3013 RMK AO2 SLP205 P0006 T00830078